Flugplatz Stuttgart

Bericht für EDDS

vom 27.04. um 06:20 UTC

variable Windrichtung mit 2 kt

Sichtweite 10 km oder mehr

gute Sicht, keine Wolken < 5000 ft, keine CB, keine Wettererscheinungen (CAVOK)

Temperatur 7.0°C

Taupunkt 3.0°C

Luftfeuchtigkeit 76%

Luftdruck 1015 hPa

keine wesentliche Wetteränderung innerhalb den nächsten 2 Stunden zu erwarten

EDDS 270620Z VRB02KT CAVOK 07/03 Q1015 NOSIG

Prognose für EDDS

vom 27.04. um 05:00 UTC

Zwischen 06:00 UTC und 07:00 UTC

variable Windrichtung mit 3 kt

Sichtweite 10 km oder mehr

keine signifikanten Wettererscheinungen

keine Wolken


Zwischen 07:00 und 09:00 UTC übergehend zu

Wind 7 kt aus 130°

Sichtweite 10 km oder mehr

keine signifikanten Wettererscheinungen

keine Wolken


Zwischen 14:00 und 16:00 UTC übergehend zu

Wind 4 kt aus 250°

Sichtweite 10 km oder mehr

keine signifikanten Wettererscheinungen

keine Wolken

TAF EDDS 270500Z 2706/2806 VRB03KT CAVOK BECMG 2707/2709 13007KT BECMG 2714/2716 25004KT
Impressum